createdAt,value
2023-02-09T00:01:20.495Z,47.01
2023-02-09T00:03:48.786Z,47.13
2023-02-09T00:06:19.104Z,47.43
2023-02-09T00:08:48.528Z,47.50
2023-02-09T00:11:20.881Z,48.06
2023-02-09T00:13:47.591Z,47.93
2023-02-09T00:16:15.368Z,47.93
2023-02-09T00:18:43.244Z,48.21
2023-02-09T00:21:12.761Z,48.21
2023-02-09T00:23:42.375Z,48.26
2023-02-09T00:26:12.762Z,48.15
2023-02-09T00:28:40.475Z,48.42
2023-02-09T00:31:09.254Z,48.93
2023-02-09T00:33:37.201Z,48.83
2023-02-09T00:36:06.610Z,48.62
2023-02-09T00:38:35.384Z,48.51
2023-02-09T00:41:03.255Z,49.12
2023-02-09T00:43:32.764Z,49.46
2023-02-09T00:46:00.695Z,49.20
2023-02-09T00:48:29.146Z,49.18
2023-02-09T00:50:56.874Z,49.42
2023-02-09T00:53:25.089Z,49.56
2023-02-09T00:55:52.785Z,49.10
2023-02-09T00:58:20.871Z,49.57
2023-02-09T01:00:50.102Z,49.59
2023-02-09T01:03:18.025Z,49.62
2023-02-09T01:05:45.824Z,50.01
2023-02-09T01:08:13.527Z,49.75
2023-02-09T01:10:41.311Z,50.22
2023-02-09T01:13:09.467Z,50.19
2023-02-09T01:15:40.285Z,50.34
2023-02-09T01:18:09.406Z,50.58
2023-02-09T01:20:37.263Z,50.58
2023-02-09T01:23:05.028Z,50.65
2023-02-09T01:25:32.778Z,50.39
2023-02-09T01:28:00.570Z,50.56
2023-02-09T01:30:28.876Z,50.26
2023-02-09T01:32:56.631Z,50.62
2023-02-09T01:35:25.808Z,50.87
2023-02-09T01:37:53.545Z,51.03
2023-02-09T01:40:21.314Z,50.99
2023-02-09T01:42:49.083Z,51.02
2023-02-09T01:45:29.706Z,51.30
2023-02-09T01:48:00.859Z,51.03
2023-02-09T01:50:34.741Z,50.70
2023-02-09T01:53:03.669Z,50.87
2023-02-09T01:55:35.258Z,51.22
2023-02-09T01:58:08.079Z,50.97
2023-02-09T02:00:35.867Z,51.57
2023-02-09T02:03:07.101Z,51.65
2023-02-09T02:05:40.159Z,51.50
2023-02-09T02:08:13.255Z,51.88
2023-02-09T02:10:41.228Z,51.78
2023-02-09T02:13:09.311Z,51.54
2023-02-09T02:15:46.377Z,51.63
2023-02-09T02:18:28.322Z,51.98
2023-02-09T02:21:40.761Z,51.99
2023-02-09T02:24:48.039Z,52.43
2023-02-09T02:27:29.599Z,52.51
2023-02-09T02:30:29.667Z,52.68
2023-02-09T02:33:13.301Z,52.24
2023-02-09T02:35:47.900Z,52.54
2023-02-09T02:38:20.254Z,52.67
2023-02-09T02:40:59.133Z,52.99
2023-02-09T02:43:42.670Z,53.25
2023-02-09T02:46:16.696Z,52.94
2023-02-09T02:48:50.866Z,53.05
2023-02-09T02:51:25.677Z,53.28
2023-02-09T02:53:57.264Z,53.41
2023-02-09T02:56:29.872Z,53.33
2023-02-09T02:59:00.385Z,53.37
2023-02-09T03:01:34.199Z,53.22
2023-02-09T03:04:06.346Z,53.72
2023-02-09T03:06:35.197Z,53.61
2023-02-09T03:09:03.042Z,53.58
2023-02-09T03:11:35.679Z,53.56
2023-02-09T03:14:16.613Z,53.56
2023-02-09T03:19:41.256Z,53.67
2023-02-09T03:22:15.053Z,53.79
2023-02-09T03:24:47.529Z,53.80
2023-02-09T03:27:17.583Z,53.83
2023-02-09T03:29:48.451Z,53.93
2023-02-09T03:32:17.659Z,54.20
2023-02-09T03:34:47.408Z,54.35
2023-02-09T03:37:15.257Z,54.38
2023-02-09T03:39:43.167Z,54.34
2023-02-09T03:42:11.288Z,54.37
2023-02-09T03:44:39.149Z,54.42
2023-02-09T03:47:08.713Z,54.53
2023-02-09T03:49:39.306Z,54.96
2023-02-09T03:52:10.445Z,54.41
2023-02-09T03:54:38.923Z,54.66
2023-02-09T03:57:07.917Z,55.17
2023-02-09T03:59:37.667Z,54.94
2023-02-09T04:02:08.239Z,55.38
2023-02-09T04:04:36.719Z,55.15
2023-02-09T04:07:05.143Z,55.22
2023-02-09T04:09:34.888Z,55.39
2023-02-09T04:12:02.741Z,55.45
2023-02-09T04:14:30.478Z,55.36
2023-02-09T04:16:58.383Z,55.29
2023-02-09T04:19:26.479Z,55.75
2023-02-09T04:21:54.362Z,55.18
2023-02-09T04:24:22.427Z,55.20
2023-02-09T04:26:51.607Z,55.46
2023-02-09T04:29:19.593Z,55.58
2023-02-09T04:31:47.385Z,55.46
2023-02-09T04:34:15.160Z,55.31
2023-02-09T04:36:42.920Z,55.60
2023-02-09T04:39:10.885Z,55.78
2023-02-09T04:41:38.694Z,55.61
2023-02-09T04:44:07.988Z,55.40
2023-02-09T04:46:35.838Z,55.82
2023-02-09T04:49:03.795Z,55.85
2023-02-09T04:51:31.672Z,55.36
2023-02-09T04:53:59.376Z,55.56
2023-02-09T04:56:27.133Z,55.96
2023-02-09T04:59:12.213Z,56.34
2023-02-09T05:01:41.312Z,56.04
2023-02-09T05:04:09.055Z,55.74
2023-02-09T05:06:36.872Z,55.94
2023-02-09T05:09:04.891Z,56.39
2023-02-09T05:11:32.615Z,56.34
2023-02-09T05:14:00.357Z,56.30
2023-02-09T05:16:28.176Z,56.32
2023-02-09T05:18:57.315Z,56.47
2023-02-09T05:21:25.049Z,56.40
2023-02-09T05:23:52.782Z,56.65
2023-02-09T05:26:20.564Z,56.57
2023-02-09T05:28:48.392Z,56.68
2023-02-09T05:31:17.976Z,56.96
2023-02-09T05:33:45.882Z,56.64
2023-02-09T05:36:14.999Z,56.78
2023-02-09T05:38:42.696Z,56.91
2023-02-09T05:41:32.857Z,57.10
2023-02-09T05:44:00.647Z,57.05
2023-02-09T05:46:28.503Z,57.03
2023-02-09T05:48:56.343Z,57.19
2023-02-09T05:51:25.528Z,57.19
2023-02-09T05:53:53.962Z,57.14
2023-02-09T05:56:22.685Z,57.11
2023-02-09T05:58:50.403Z,57.00
2023-02-09T06:01:18.230Z,56.99
2023-02-09T06:03:46.159Z,57.23
2023-02-09T06:06:14.072Z,57.02
2023-02-09T06:08:43.248Z,57.12
2023-02-09T06:11:11.111Z,57.18
2023-02-09T06:13:38.838Z,57.51
2023-02-09T06:16:07.148Z,57.55
2023-02-09T06:18:35.032Z,57.57
2023-02-09T06:21:02.860Z,57.53
2023-02-09T06:23:30.583Z,57.32
2023-02-09T06:25:59.722Z,57.71
2023-02-09T06:28:27.639Z,57.39
2023-02-09T06:30:55.603Z,57.42
2023-02-09T06:33:23.416Z,57.67
2023-02-09T06:35:52.381Z,57.41
2023-02-09T06:38:20.657Z,57.39
2023-02-09T06:40:48.534Z,57.69
2023-02-09T06:43:18.463Z,57.68
2023-02-09T06:45:46.184Z,57.79
2023-02-09T06:48:14.090Z,57.71
2023-02-09T06:50:42.012Z,57.83
2023-02-09T06:53:09.831Z,57.64
2023-02-09T06:55:37.578Z,57.60
2023-02-09T06:58:05.366Z,57.85
2023-02-09T07:00:34.733Z,58.02
2023-02-09T07:03:03.350Z,57.57
2023-02-09T07:05:32.153Z,57.99
2023-02-09T07:07:59.957Z,57.86
2023-02-09T07:10:27.880Z,57.67
2023-02-09T07:12:58.230Z,57.78
2023-02-09T07:15:26.136Z,58.09
2023-02-09T07:17:55.322Z,57.58
2023-02-09T07:20:23.062Z,57.52
2023-02-09T07:22:50.771Z,57.76
2023-02-09T07:25:18.548Z,57.34
2023-02-09T07:27:46.569Z,57.58
2023-02-09T07:30:15.358Z,57.51
2023-02-09T07:32:43.231Z,57.92
2023-02-09T07:35:12.512Z,57.98
2023-02-09T07:37:40.234Z,57.50
2023-02-09T07:40:10.151Z,57.50
2023-02-09T07:42:38.089Z,57.35
2023-02-09T07:45:07.198Z,57.06
2023-02-09T07:47:35.876Z,57.60
2023-02-09T07:50:03.677Z,57.07
2023-02-09T07:52:32.784Z,57.02
2023-02-09T07:55:00.573Z,57.00
2023-02-09T07:57:28.628Z,56.89
2023-02-09T07:59:56.828Z,56.73
2023-02-09T08:02:29.520Z,56.80
2023-02-09T08:05:00.437Z,56.89
2023-02-09T08:07:32.662Z,56.65
2023-02-09T08:10:00.425Z,56.27
2023-02-09T08:12:45.047Z,56.24
2023-02-09T08:15:14.930Z,56.09
2023-02-09T08:17:42.827Z,55.82
2023-02-09T08:20:15.247Z,56.13
2023-02-09T08:22:46.718Z,55.92
2023-02-09T08:25:17.331Z,56.04
2023-02-09T08:27:45.986Z,55.75
2023-02-09T08:30:16.516Z,55.80
2023-02-09T08:32:44.369Z,56.10
2023-02-09T08:35:12.376Z,56.06
2023-02-09T08:37:40.026Z,55.94
2023-02-09T08:40:09.796Z,55.51
2023-02-09T08:42:37.521Z,55.72
2023-02-09T08:45:05.648Z,55.20
2023-02-09T08:47:33.335Z,55.44
2023-02-09T08:50:00.996Z,55.33
2023-02-09T08:52:28.813Z,55.43
2023-02-09T08:54:56.541Z,55.16
2023-02-09T08:57:38.135Z,54.99
2023-02-09T09:00:12.302Z,55.08
2023-02-09T09:02:40.014Z,54.86
2023-02-09T09:05:10.163Z,54.99
2023-02-09T09:07:37.840Z,54.35
2023-02-09T09:10:08.789Z,54.28
2023-02-09T09:12:38.504Z,54.52
2023-02-09T09:15:06.705Z,54.37
2023-02-09T09:17:34.610Z,54.80
2023-02-09T09:20:02.361Z,54.67
2023-02-09T09:22:30.070Z,54.42
2023-02-09T09:24:57.816Z,54.08
2023-02-09T09:27:26.974Z,54.27
2023-02-09T09:29:56.707Z,53.55
2023-02-09T09:32:24.939Z,53.23
2023-02-09T09:34:53.594Z,53.80
2023-02-09T09:37:21.414Z,53.19
2023-02-09T09:39:49.857Z,52.77
2023-02-09T09:42:25.194Z,53.35
2023-02-09T09:44:53.914Z,52.13
2023-02-09T09:47:34.172Z,52.45
2023-02-09T09:50:01.959Z,52.63
2023-02-09T09:52:31.872Z,52.33
2023-02-09T09:55:01.349Z,52.41
2023-02-09T09:57:31.111Z,51.46
2023-02-09T09:59:59.417Z,51.99
2023-02-09T10:02:31.760Z,51.50
2023-02-09T10:05:19.406Z,51.87
2023-02-09T10:07:55.623Z,51.66
2023-02-09T10:10:36.722Z,51.59
2023-02-09T10:13:10.431Z,51.42
2023-02-09T10:15:38.602Z,51.26
2023-02-09T10:18:15.650Z,51.20
2023-02-09T10:20:46.715Z,50.96
2023-02-09T10:23:20.670Z,50.96
2023-02-09T10:25:59.124Z,50.11
2023-02-09T10:28:28.785Z,50.05
2023-02-09T10:30:59.890Z,50.32
2023-02-09T10:33:30.830Z,49.99
2023-02-09T10:36:01.010Z,49.83
2023-02-09T10:38:33.411Z,49.73
2023-02-09T10:41:02.532Z,49.94
2023-02-09T10:43:33.429Z,49.96
2023-02-09T10:46:03.722Z,50.19
2023-02-09T10:48:42.040Z,49.87
2023-02-09T10:51:16.153Z,49.93
2023-02-09T10:54:00.155Z,49.86
2023-02-09T10:56:29.892Z,49.29
2023-02-09T10:59:01.560Z,49.65
2023-02-09T11:01:34.080Z,49.27
2023-02-09T11:04:04.322Z,49.23
2023-02-09T11:06:42.335Z,49.24
2023-02-09T11:09:16.622Z,49.12
2023-02-09T11:11:44.929Z,49.21
2023-02-09T11:14:14.749Z,48.86
2023-02-09T11:16:54.764Z,48.42
2023-02-09T11:19:45.186Z,48.88
2023-02-09T11:22:15.462Z,49.26
2023-02-09T11:24:52.202Z,49.26
2023-02-09T11:27:32.849Z,49.57
2023-02-09T11:30:15.771Z,49.08
2023-02-09T11:32:52.760Z,48.90
2023-02-09T11:35:41.524Z,48.98
2023-02-09T11:38:15.886Z,48.82
2023-02-09T11:40:48.936Z,48.65
2023-02-09T11:43:22.531Z,48.68
2023-02-09T11:45:52.008Z,48.60
2023-02-09T11:48:26.299Z,48.89
2023-02-09T11:51:01.692Z,48.59
2023-02-09T11:53:37.308Z,48.74
2023-02-09T11:56:07.286Z,47.83
2023-02-09T11:58:43.826Z,47.67
2023-02-09T12:01:24.887Z,48.12
2023-02-09T12:04:06.593Z,48.20
2023-02-09T12:06:41.312Z,47.98
2023-02-09T12:09:21.367Z,47.98
2023-02-09T12:11:58.813Z,47.77
2023-02-09T12:14:53.470Z,47.69
2023-02-09T12:17:30.449Z,47.75
2023-02-09T12:20:00.398Z,48.18
2023-02-09T12:25:33.225Z,47.71
2023-02-09T12:28:42.846Z,47.87
2023-02-09T12:31:21.540Z,47.75
2023-02-09T12:34:15.814Z,47.12
2023-02-09T12:37:19.747Z,47.23
2023-02-09T12:40:25.883Z,47.25
2023-02-09T12:43:28.274Z,47.12
2023-02-09T12:46:17.315Z,46.93
2023-02-09T12:49:22.263Z,46.41
2023-02-09T12:52:15.270Z,46.45
2023-02-09T12:54:52.025Z,46.36
2023-02-09T12:57:54.996Z,46.46
2023-02-09T13:00:56.540Z,46.54
2023-02-09T13:03:28.831Z,46.62
2023-02-09T13:06:03.240Z,46.57
2023-02-09T13:08:47.365Z,47.19
2023-02-09T13:11:30.100Z,47.40
2023-02-09T13:14:03.393Z,47.37
2023-02-09T13:16:55.233Z,47.06
2023-02-09T13:19:50.627Z,47.13
2023-02-09T13:22:28.113Z,47.15
2023-02-09T13:25:00.800Z,47.69
2023-02-09T13:27:31.754Z,47.57
2023-02-09T13:30:01.047Z,47.59
2023-02-09T13:32:38.350Z,47.81
2023-02-09T13:35:17.258Z,47.71
2023-02-09T13:37:48.250Z,47.54
2023-02-09T13:40:19.366Z,47.71
2023-02-09T13:42:56.751Z,47.87
2023-02-09T13:45:28.308Z,47.08
2023-02-09T13:47:59.150Z,46.87
2023-02-09T13:50:29.475Z,46.19
2023-02-09T13:53:09.383Z,46.23
2023-02-09T13:55:40.032Z,46.43
2023-02-09T13:58:10.256Z,46.30
2023-02-09T14:00:43.811Z,46.02
2023-02-09T14:03:19.513Z,45.80
2023-02-09T14:05:55.547Z,45.38
2023-02-09T14:08:25.907Z,45.61
2023-02-09T14:10:57.901Z,46.08
2023-02-09T14:13:31.235Z,45.75
2023-02-09T14:16:09.274Z,45.99
2023-02-09T14:18:49.772Z,46.03
2023-02-09T14:21:21.341Z,45.79
2023-02-09T14:23:50.908Z,46.36
2023-02-09T14:26:23.180Z,46.14
2023-02-09T14:28:54.528Z,46.13
2023-02-09T14:31:25.324Z,45.71
2023-02-09T14:33:55.878Z,46.42
2023-02-09T14:36:30.362Z,46.06
2023-02-09T14:39:11.941Z,45.98
2023-02-09T14:41:40.432Z,46.03
2023-02-09T14:44:21.731Z,46.21
2023-02-09T14:46:55.400Z,46.27
2023-02-09T14:49:24.643Z,46.53
2023-02-09T14:52:10.612Z,46.51
2023-02-09T14:54:48.159Z,45.87
2023-02-09T14:57:20.200Z,45.98
2023-02-09T14:59:48.181Z,46.60
2023-02-09T15:02:20.588Z,46.16
2023-02-09T15:04:54.536Z,46.13
2023-02-09T15:08:31.939Z,46.61
2023-02-09T15:14:46.744Z,45.95
2023-02-09T15:17:22.198Z,46.32
2023-02-09T15:19:51.998Z,45.99
2023-02-09T15:22:26.357Z,46.67
2023-02-09T15:24:54.818Z,45.80
2023-02-09T15:27:27.752Z,45.74
2023-02-09T15:30:02.422Z,46.06
2023-02-09T15:32:33.437Z,45.85
2023-02-09T15:35:01.397Z,46.29
2023-02-09T15:37:37.082Z,46.55
2023-02-09T15:40:39.860Z,45.80
2023-02-09T15:43:33.839Z,46.19
2023-02-09T15:46:19.299Z,46.73
2023-02-09T15:48:48.844Z,46.94
2023-02-09T15:51:18.048Z,46.64
2023-02-09T15:53:47.716Z,47.40
2023-02-09T15:56:16.759Z,47.18
2023-02-09T15:58:48.282Z,47.72
2023-02-09T16:01:18.965Z,47.99
2023-02-09T16:03:48.385Z,47.90
2023-02-09T16:06:19.576Z,48.07
2023-02-09T16:08:48.620Z,48.07
2023-02-09T16:11:21.051Z,48.03
2023-02-09T16:13:49.368Z,47.79
2023-02-09T16:16:18.427Z,48.07
2023-02-09T16:18:46.677Z,48.20
2023-02-09T16:21:24.758Z,48.63
2023-02-09T16:23:54.213Z,48.51
2023-02-09T16:26:24.383Z,48.45
2023-02-09T16:28:53.364Z,48.33
2023-02-09T16:31:22.053Z,48.42
2023-02-09T16:33:50.640Z,48.68
2023-02-09T16:36:23.859Z,48.51
2023-02-09T16:38:52.161Z,48.42
2023-02-09T16:41:41.608Z,48.72
2023-02-09T16:44:20.405Z,48.81
2023-02-09T16:46:50.360Z,49.38
2023-02-09T16:49:32.131Z,49.02
2023-02-09T16:52:05.856Z,49.46
2023-02-09T16:54:45.074Z,49.46
2023-02-09T16:57:14.871Z,49.92
2023-02-09T16:59:42.897Z,49.54
2023-02-09T17:02:32.116Z,49.91
2023-02-09T17:05:01.696Z,49.90
2023-02-09T17:07:45.416Z,50.22
2023-02-09T17:10:24.181Z,50.33
2023-02-09T17:12:53.757Z,50.83
2023-02-09T17:15:31.201Z,51.05
2023-02-09T17:18:06.839Z,50.94
2023-02-09T17:20:39.075Z,51.15
2023-02-09T17:23:14.691Z,51.16
2023-02-09T17:25:42.670Z,51.02
2023-02-09T17:28:10.860Z,51.23
2023-02-09T17:30:44.382Z,51.41
2023-02-09T17:33:31.007Z,51.48
2023-02-09T17:38:49.374Z,52.05
2023-02-09T17:41:23.102Z,52.21
2023-02-09T17:43:53.733Z,51.94
2023-02-09T17:46:22.807Z,51.55
2023-02-09T17:48:50.758Z,51.61
2023-02-09T17:51:21.513Z,51.63
2023-02-09T17:53:53.609Z,51.67
2023-02-09T17:56:21.479Z,51.58
2023-02-09T17:58:49.342Z,51.62
2023-02-09T18:01:27.057Z,51.57
2023-02-09T18:03:56.425Z,51.60
2023-02-09T18:06:34.364Z,52.10
2023-02-09T18:09:05.821Z,51.86
2023-02-09T18:11:57.566Z,52.09
2023-02-09T18:14:27.234Z,52.12
2023-02-09T18:16:55.593Z,52.52
2023-02-09T18:19:24.777Z,52.80
2023-02-09T18:21:54.730Z,52.96
2023-02-09T18:24:26.442Z,52.53
2023-02-09T18:26:54.502Z,53.13
2023-02-09T18:29:29.225Z,53.70
2023-02-09T18:31:57.513Z,53.84
2023-02-09T18:34:25.599Z,53.98
2023-02-09T18:36:53.491Z,53.79
2023-02-09T18:39:21.831Z,54.24
2023-02-09T18:41:55.052Z,54.78
2023-02-09T18:44:27.064Z,54.85
2023-02-09T18:46:54.914Z,54.81
2023-02-09T18:49:22.949Z,55.45
2023-02-09T18:51:52.361Z,54.95
2023-02-09T18:54:20.734Z,55.64
2023-02-09T18:56:50.356Z,55.74
2023-02-09T18:59:18.677Z,55.81
2023-02-09T19:01:46.831Z,55.82
2023-02-09T19:04:14.988Z,56.24
2023-02-09T19:06:42.789Z,56.41
2023-02-09T19:09:10.715Z,56.26
2023-02-09T19:11:38.562Z,56.60
2023-02-09T19:14:25.234Z,56.85
2023-02-09T19:16:53.116Z,56.93
2023-02-09T19:19:21.344Z,56.80
2023-02-09T19:21:52.162Z,57.28
2023-02-09T19:24:20.840Z,57.42
2023-02-09T19:26:48.728Z,57.50
2023-02-09T19:29:18.172Z,57.93
2023-02-09T19:31:46.597Z,58.06
2023-02-09T19:34:14.479Z,58.17
2023-02-09T19:36:42.523Z,58.54
2023-02-09T19:39:13.588Z,58.47
2023-02-09T19:41:41.968Z,58.86
2023-02-09T19:44:10.032Z,58.94
2023-02-09T19:46:39.975Z,59.46
2023-02-09T19:49:08.117Z,59.55
2023-02-09T19:51:36.304Z,59.64
2023-02-09T19:54:04.842Z,59.52
2023-02-09T19:56:32.877Z,59.96
2023-02-09T19:59:01.365Z,59.75
2023-02-09T20:01:29.709Z,60.16
2023-02-09T20:03:59.278Z,59.89
2023-02-09T20:06:30.975Z,60.02
2023-02-09T20:08:59.989Z,60.37
2023-02-09T20:11:28.188Z,60.19
2023-02-09T20:13:56.623Z,60.62
2023-02-09T20:16:26.778Z,60.56
2023-02-09T20:18:55.558Z,60.34
2023-02-09T20:21:25.176Z,61.10
2023-02-09T20:23:55.429Z,60.87
2023-02-09T20:26:26.563Z,60.99
2023-02-09T20:28:54.852Z,61.27
2023-02-09T20:31:25.585Z,61.43
2023-02-09T20:33:54.566Z,61.41
2023-02-09T20:36:25.670Z,61.56
2023-02-09T20:38:53.914Z,61.55
2023-02-09T20:41:22.291Z,61.74
2023-02-09T20:44:07.564Z,61.86
2023-02-09T20:47:02.455Z,61.73
2023-02-09T20:49:31.438Z,61.67
2023-02-09T20:52:00.746Z,61.99
2023-02-09T20:54:29.605Z,62.34
2023-02-09T20:56:57.347Z,62.27
2023-02-09T20:59:26.040Z,62.55
2023-02-09T21:01:53.959Z,62.55
2023-02-09T21:04:21.971Z,62.22
2023-02-09T21:06:49.886Z,62.44
2023-02-09T21:09:25.095Z,62.58
2023-02-09T21:11:53.349Z,62.70
2023-02-09T21:14:27.668Z,62.45
2023-02-09T21:17:07.243Z,62.96
2023-02-09T21:19:35.738Z,62.83
2023-02-09T21:22:03.715Z,63.02
2023-02-09T21:24:32.863Z,63.18
2023-02-09T21:27:01.455Z,62.96
2023-02-09T21:29:30.197Z,63.14
2023-02-09T21:32:01.511Z,63.51
2023-02-09T21:34:29.553Z,63.66
2023-02-09T21:36:57.341Z,63.54
2023-02-09T21:39:25.185Z,63.64
2023-02-09T21:42:11.959Z,63.69
2023-02-09T21:44:39.759Z,63.68
2023-02-09T21:47:07.803Z,63.85
2023-02-09T21:49:35.558Z,64.13
2023-02-09T21:52:03.431Z,63.98
2023-02-09T21:54:33.178Z,64.69
2023-02-09T21:57:02.925Z,64.83
2023-02-09T21:59:30.942Z,64.94
2023-02-09T22:01:58.684Z,64.99
2023-02-09T22:04:26.724Z,65.20
2023-02-09T22:06:54.525Z,64.96
2023-02-09T22:09:23.941Z,65.02
2023-02-09T22:11:51.790Z,65.18
2023-02-09T22:14:20.940Z,65.01
2023-02-09T22:16:48.645Z,65.34
2023-02-09T22:19:16.456Z,65.99
2023-02-09T22:21:44.613Z,65.64
2023-02-09T22:24:16.382Z,66.36
2023-02-09T22:26:44.293Z,66.81
2023-02-09T22:29:13.917Z,66.78
2023-02-09T22:31:43.399Z,66.67
2023-02-09T22:34:11.582Z,66.91
2023-02-09T22:36:39.926Z,67.52
2023-02-09T22:39:08.544Z,67.71
2023-02-09T22:41:37.016Z,67.93
2023-02-09T22:44:07.156Z,68.11
2023-02-09T22:46:37.612Z,67.89
2023-02-09T22:49:08.748Z,68.02
2023-02-09T22:51:37.618Z,68.73
2023-02-09T22:54:06.521Z,68.85
2023-02-09T22:56:34.646Z,68.79
2023-02-09T22:59:02.638Z,69.18
2023-02-09T23:01:30.900Z,68.96
2023-02-09T23:03:59.064Z,68.99
2023-02-09T23:06:30.059Z,69.28
2023-02-09T23:09:00.625Z,69.02
2023-02-09T23:11:29.786Z,69.42
2023-02-09T23:14:13.706Z,69.57
2023-02-09T23:16:42.669Z,69.44
2023-02-09T23:19:14.213Z,69.26
2023-02-09T23:21:45.824Z,69.53
2023-02-09T23:24:16.230Z,69.97
2023-02-09T23:26:44.413Z,69.73
2023-02-09T23:29:14.908Z,69.76
2023-02-09T23:31:44.248Z,69.67
2023-02-09T23:34:15.500Z,69.69
2023-02-09T23:36:44.702Z,69.92
2023-02-09T23:39:15.188Z,69.94
2023-02-09T23:41:43.225Z,69.81
2023-02-09T23:44:10.970Z,70.23
2023-02-09T23:46:39.062Z,69.96
2023-02-09T23:49:06.896Z,70.53
2023-02-09T23:51:36.242Z,70.56
2023-02-09T23:54:07.372Z,70.22
2023-02-09T23:56:37.693Z,70.12
2023-02-09T23:59:07.250Z,70.50
